sensor_id;sensor_type;location;lat;lon;timestamp;temperature;humidity
65582;DHT22;52231;40.090;18.348;2022-12-26T00:01:36;8.50;91.40
65582;DHT22;52231;40.090;18.348;2022-12-26T00:04:05;8.50;91.40
65582;DHT22;52231;40.090;18.348;2022-12-26T00:06:33;8.50;91.40
65582;DHT22;52231;40.090;18.348;2022-12-26T00:09:04;8.40;91.50
65582;DHT22;52231;40.090;18.348;2022-12-26T00:11:32;8.30;91.40
65582;DHT22;52231;40.090;18.348;2022-12-26T00:14:11;8.30;91.40
65582;DHT22;52231;40.090;18.348;2022-12-26T00:16:42;8.20;91.40
65582;DHT22;52231;40.090;18.348;2022-12-26T00:19:10;8.20;91.30
65582;DHT22;52231;40.090;18.348;2022-12-26T00:21:39;8.10;91.30
65582;DHT22;52231;40.090;18.348;2022-12-26T00:24:11;8.10;91.30
65582;DHT22;52231;40.090;18.348;2022-12-26T00:26:39;8.10;91.30
65582;DHT22;52231;40.090;18.348;2022-12-26T00:29:07;8.10;91.40
65582;DHT22;52231;40.090;18.348;2022-12-26T00:31:35;8.00;91.40
65582;DHT22;52231;40.090;18.348;2022-12-26T00:34:04;8.00;91.40
65582;DHT22;52231;40.090;18.348;2022-12-26T00:36:33;8.00;91.40
65582;DHT22;52231;40.090;18.348;2022-12-26T00:39:02;8.00;91.40
65582;DHT22;52231;40.090;18.348;2022-12-26T00:41:33;8.00;91.50
65582;DHT22;52231;40.090;18.348;2022-12-26T00:44:01;8.00;91.50
65582;DHT22;52231;40.090;18.348;2022-12-26T00:46:30;8.00;91.50
65582;DHT22;52231;40.090;18.348;2022-12-26T00:48:58;8.00;91.50
65582;DHT22;52231;40.090;18.348;2022-12-26T00:51:26;7.90;91.50
65582;DHT22;52231;40.090;18.348;2022-12-26T00:53:55;7.90;91.50
65582;DHT22;52231;40.090;18.348;2022-12-26T00:56:23;7.80;91.50
65582;DHT22;52231;40.090;18.348;2022-12-26T00:58:51;7.80;91.50
65582;DHT22;52231;40.090;18.348;2022-12-26T01:01:21;7.90;91.50
65582;DHT22;52231;40.090;18.348;2022-12-26T01:04:07;7.80;91.50
65582;DHT22;52231;40.090;18.348;2022-12-26T01:06:36;7.80;91.50
65582;DHT22;52231;40.090;18.348;2022-12-26T01:16:08;7.80;91.60
65582;DHT22;52231;40.090;18.348;2022-12-26T01:18:36;7.70;91.50
65582;DHT22;52231;40.090;18.348;2022-12-26T01:21:07;7.70;91.60
65582;DHT22;52231;40.090;18.348;2022-12-26T01:23:35;7.70;91.60
65582;DHT22;52231;40.090;18.348;2022-12-26T01:26:05;7.70;91.60
65582;DHT22;52231;40.090;18.348;2022-12-26T01:28:33;7.70;91.60
65582;DHT22;52231;40.090;18.348;2022-12-26T01:31:05;7.70;91.50
65582;DHT22;52231;40.090;18.348;2022-12-26T01:33:33;7.70;91.60
65582;DHT22;52231;40.090;18.348;2022-12-26T01:36:02;7.70;91.60
65582;DHT22;52231;40.090;18.348;2022-12-26T01:38:33;7.70;91.60
65582;DHT22;52231;40.090;18.348;2022-12-26T01:41:01;7.70;91.60
65582;DHT22;52231;40.090;18.348;2022-12-26T01:46:38;7.70;91.60
65582;DHT22;52231;40.090;18.348;2022-12-26T01:49:36;7.70;91.70
65582;DHT22;52231;40.090;18.348;2022-12-26T01:52:14;7.70;91.70
65582;DHT22;52231;40.090;18.348;2022-12-26T01:54:46;7.60;91.60
65582;DHT22;52231;40.090;18.348;2022-12-26T01:57:21;7.50;91.50
65582;DHT22;52231;40.090;18.348;2022-12-26T01:59:51;7.40;91.50
65582;DHT22;52231;40.090;18.348;2022-12-26T02:02:21;7.30;91.40
65582;DHT22;52231;40.090;18.348;2022-12-26T02:04:51;7.30;91.40
65582;DHT22;52231;40.090;18.348;2022-12-26T02:07:41;7.30;91.40
65582;DHT22;52231;40.090;18.348;2022-12-26T02:10:14;7.20;91.40
65582;DHT22;52231;40.090;18.348;2022-12-26T02:12:47;7.10;91.40
65582;DHT22;52231;40.090;18.348;2022-12-26T02:15:16;7.10;91.40
65582;DHT22;52231;40.090;18.348;2022-12-26T02:17:46;7.00;91.40
65582;DHT22;52231;40.090;18.348;2022-12-26T02:20:39;7.00;91.40
65582;DHT22;52231;40.090;18.348;2022-12-26T02:26:24;7.00;91.50
65582;DHT22;52231;40.090;18.348;2022-12-26T02:33:18;7.10;91.60
65582;DHT22;52231;40.090;18.348;2022-12-26T02:38:34;7.00;91.70
65582;DHT22;52231;40.090;18.348;2022-12-26T02:41:22;7.00;91.70
65582;DHT22;52231;40.090;18.348;2022-12-26T02:50:46;7.00;91.80
65582;DHT22;52231;40.090;18.348;2022-12-26T02:56:37;6.80;91.70
65582;DHT22;52231;40.090;18.348;2022-12-26T02:59:35;6.80;91.60
65582;DHT22;52231;40.090;18.348;2022-12-26T03:05:33;6.70;91.60
65582;DHT22;52231;40.090;18.348;2022-12-26T03:11:36;6.50;91.50
65582;DHT22;52231;40.090;18.348;2022-12-26T03:14:47;6.50;91.50
65582;DHT22;52231;40.090;18.348;2022-12-26T03:17:44;6.40;91.50
65582;DHT22;52231;40.090;18.348;2022-12-26T03:20:15;6.50;91.60
65582;DHT22;52231;40.090;18.348;2022-12-26T03:28:41;6.50;91.70
65582;DHT22;52231;40.090;18.348;2022-12-26T03:31:12;6.60;91.70
65582;DHT22;52231;40.090;18.348;2022-12-26T03:33:43;6.50;91.70
65582;DHT22;52231;40.090;18.348;2022-12-26T03:39:44;6.40;91.60
65582;DHT22;52231;40.090;18.348;2022-12-26T03:42:54;6.30;91.60
65582;DHT22;52231;40.090;18.348;2022-12-26T03:52:57;6.40;91.80
65582;DHT22;52231;40.090;18.348;2022-12-26T03:56:17;6.40;91.80
65582;DHT22;52231;40.090;18.348;2022-12-26T03:59:12;6.40;91.90
65582;DHT22;52231;40.090;18.348;2022-12-26T04:02:04;6.40;91.90
65582;DHT22;52231;40.090;18.348;2022-12-26T04:04:54;6.40;91.90
65582;DHT22;52231;40.090;18.348;2022-12-26T04:07:48;6.40;91.90
65582;DHT22;52231;40.090;18.348;2022-12-26T04:10:48;6.40;92.00
65582;DHT22;52231;40.090;18.348;2022-12-26T04:21:17;6.40;92.00
65582;DHT22;52231;40.090;18.348;2022-12-26T04:24:12;6.40;92.00
65582;DHT22;52231;40.090;18.348;2022-12-26T04:27:27;6.30;91.90
65582;DHT22;52231;40.090;18.348;2022-12-26T04:30:15;6.20;91.90
65582;DHT22;52231;40.090;18.348;2022-12-26T04:33:13;6.10;91.80
65582;DHT22;52231;40.090;18.348;2022-12-26T04:36:14;6.10;91.70
65582;DHT22;52231;40.090;18.348;2022-12-26T04:39:03;6.10;91.70
65582;DHT22;52231;40.090;18.348;2022-12-26T04:41:52;6.10;91.70
65582;DHT22;52231;40.090;18.348;2022-12-26T04:44:40;6.00;91.80
65582;DHT22;52231;40.090;18.348;2022-12-26T04:47:16;6.10;91.80
65582;DHT22;52231;40.090;18.348;2022-12-26T04:49:45;6.10;91.80
65582;DHT22;52231;40.090;18.348;2022-12-26T04:52:31;6.10;91.90
65582;DHT22;52231;40.090;18.348;2022-12-26T04:55:18;6.10;91.90
65582;DHT22;52231;40.090;18.348;2022-12-26T04:57:46;6.20;91.90
65582;DHT22;52231;40.090;18.348;2022-12-26T05:00:15;6.20;92.00
65582;DHT22;52231;40.090;18.348;2022-12-26T05:03:02;6.20;92.00
65582;DHT22;52231;40.090;18.348;2022-12-26T05:05:50;6.20;92.00
65582;DHT22;52231;40.090;18.348;2022-12-26T05:08:47;6.20;92.10
65582;DHT22;52231;40.090;18.348;2022-12-26T05:11:34;6.20;92.10
65582;DHT22;52231;40.090;18.348;2022-12-26T05:14:02;6.10;92.10
65582;DHT22;52231;40.090;18.348;2022-12-26T05:16:30;6.10;92.00
65582;DHT22;52231;40.090;18.348;2022-12-26T05:19:17;5.90;91.90
65582;DHT22;52231;40.090;18.348;2022-12-26T05:22:04;5.90;91.90
65582;DHT22;52231;40.090;18.348;2022-12-26T05:24:51;5.80;91.90
65582;DHT22;52231;40.090;18.348;2022-12-26T05:27:42;5.80;91.90
65582;DHT22;52231;40.090;18.348;2022-12-26T05:30:29;5.80;91.90
65582;DHT22;52231;40.090;18.348;2022-12-26T05:32:57;5.70;91.80
65582;DHT22;52231;40.090;18.348;2022-12-26T05:35:44;5.70;91.80
65582;DHT22;52231;40.090;18.348;2022-12-26T05:38:13;5.70;91.80
65582;DHT22;52231;40.090;18.348;2022-12-26T05:40:41;5.60;91.80
65582;DHT22;52231;40.090;18.348;2022-12-26T05:43:09;5.60;91.80
65582;DHT22;52231;40.090;18.348;2022-12-26T05:45:37;5.50;91.80
65582;DHT22;52231;40.090;18.348;2022-12-26T05:48:07;5.50;91.80
65582;DHT22;52231;40.090;18.348;2022-12-26T05:50:35;5.50;91.80
65582;DHT22;52231;40.090;18.348;2022-12-26T05:53:03;5.50;91.90
65582;DHT22;52231;40.090;18.348;2022-12-26T05:55:31;5.50;91.90
65582;DHT22;52231;40.090;18.348;2022-12-26T05:57:59;5.50;91.90
65582;DHT22;52231;40.090;18.348;2022-12-26T06:00:28;5.60;91.90
65582;DHT22;52231;40.090;18.348;2022-12-26T06:02:58;5.60;91.90
65582;DHT22;52231;40.090;18.348;2022-12-26T06:05:27;5.70;92.00
65582;DHT22;52231;40.090;18.348;2022-12-26T06:08:22;5.60;92.00
65582;DHT22;52231;40.090;18.348;2022-12-26T06:10:54;5.60;92.00
65582;DHT22;52231;40.090;18.348;2022-12-26T06:17:30;5.70;92.00
65582;DHT22;52231;40.090;18.348;2022-12-26T06:19:59;5.70;92.00
65582;DHT22;52231;40.090;18.348;2022-12-26T06:22:31;5.70;92.00
65582;DHT22;52231;40.090;18.348;2022-12-26T06:26:08;5.70;92.00
65582;DHT22;52231;40.090;18.348;2022-12-26T06:28:37;5.70;91.90
65582;DHT22;52231;40.090;18.348;2022-12-26T06:31:13;5.60;91.80
65582;DHT22;52231;40.090;18.348;2022-12-26T06:33:42;5.50;91.80
65582;DHT22;52231;40.090;18.348;2022-12-26T06:36:13;5.40;91.70
65582;DHT22;52231;40.090;18.348;2022-12-26T06:38:42;5.50;91.70
65582;DHT22;52231;40.090;18.348;2022-12-26T06:41:12;5.50;91.60
65582;DHT22;52231;40.090;18.348;2022-12-26T06:43:55;5.70;91.70
65582;DHT22;52231;40.090;18.348;2022-12-26T06:46:32;5.90;91.70
65582;DHT22;52231;40.090;18.348;2022-12-26T06:49:01;6.00;91.70
65582;DHT22;52231;40.090;18.348;2022-12-26T06:52:34;6.20;91.80
65582;DHT22;52231;40.090;18.348;2022-12-26T06:58:46;6.70;91.80
65582;DHT22;52231;40.090;18.348;2022-12-26T07:01:17;6.90;91.80
65582;DHT22;52231;40.090;18.348;2022-12-26T07:03:46;7.10;91.80
65582;DHT22;52231;40.090;18.348;2022-12-26T07:08:46;7.40;91.70
65582;DHT22;52231;40.090;18.348;2022-12-26T07:11:22;7.60;91.70
65582;DHT22;52231;40.090;18.348;2022-12-26T07:13:51;7.70;91.60
65582;DHT22;52231;40.090;18.348;2022-12-26T07:16:20;8.00;91.50
65582;DHT22;52231;40.090;18.348;2022-12-26T07:18:50;8.20;91.40
65582;DHT22;52231;40.090;18.348;2022-12-26T07:21:19;8.50;91.30
65582;DHT22;52231;40.090;18.348;2022-12-26T07:23:47;8.70;91.00
65582;DHT22;52231;40.090;18.348;2022-12-26T07:26:15;8.80;90.60
65582;DHT22;52231;40.090;18.348;2022-12-26T07:28:44;9.20;90.30
65582;DHT22;52231;40.090;18.348;2022-12-26T07:31:17;9.50;89.70
65582;DHT22;52231;40.090;18.348;2022-12-26T07:33:53;9.70;88.90
65582;DHT22;52231;40.090;18.348;2022-12-26T07:36:22;9.90;88.20
65582;DHT22;52231;40.090;18.348;2022-12-26T07:39:16;10.30;87.60
65582;DHT22;52231;40.090;18.348;2022-12-26T07:41:48;10.60;87.50
65582;DHT22;52231;40.090;18.348;2022-12-26T07:45:00;10.80;86.40
65582;DHT22;52231;40.090;18.348;2022-12-26T07:49:05;11.20;85.70
65582;DHT22;52231;40.090;18.348;2022-12-26T07:51:34;11.50;84.20
65582;DHT22;52231;40.090;18.348;2022-12-26T07:54:03;11.80;83.80
65582;DHT22;52231;40.090;18.348;2022-12-26T07:56:35;12.00;83.30
65582;DHT22;52231;40.090;18.348;2022-12-26T07:59:03;12.30;82.60
65582;DHT22;52231;40.090;18.348;2022-12-26T08:01:32;12.40;82.20
65582;DHT22;52231;40.090;18.348;2022-12-26T08:04:05;12.60;82.20
65582;DHT22;52231;40.090;18.348;2022-12-26T08:06:33;12.80;82.00
65582;DHT22;52231;40.090;18.348;2022-12-26T08:09:02;12.90;80.90
65582;DHT22;52231;40.090;18.348;2022-12-26T08:11:33;13.00;80.90
65582;DHT22;52231;40.090;18.348;2022-12-26T08:14:02;13.20;81.00
65582;DHT22;52231;40.090;18.348;2022-12-26T08:16:30;13.40;81.00
65582;DHT22;52231;40.090;18.348;2022-12-26T08:19:00;13.60;80.90
65582;DHT22;52231;40.090;18.348;2022-12-26T08:21:31;13.80;80.50
65582;DHT22;52231;40.090;18.348;2022-12-26T08:24:11;14.00;79.80
65582;DHT22;52231;40.090;18.348;2022-12-26T08:26:40;14.20;79.90
65582;DHT22;52231;40.090;18.348;2022-12-26T08:29:09;14.30;79.80
65582;DHT22;52231;40.090;18.348;2022-12-26T08:31:38;14.50;79.00
65582;DHT22;52231;40.090;18.348;2022-12-26T08:34:06;14.70;78.40
65582;DHT22;52231;40.090;18.348;2022-12-26T08:36:34;14.80;78.20
65582;DHT22;52231;40.090;18.348;2022-12-26T08:39:03;14.80;77.30
65582;DHT22;52231;40.090;18.348;2022-12-26T08:41:31;15.00;77.60
65582;DHT22;52231;40.090;18.348;2022-12-26T08:43:59;15.20;77.60
65582;DHT22;52231;40.090;18.348;2022-12-26T08:46:47;15.20;76.90
65582;DHT22;52231;40.090;18.348;2022-12-26T08:49:22;15.30;76.80
65582;DHT22;52231;40.090;18.348;2022-12-26T08:51:50;15.40;77.10
65582;DHT22;52231;40.090;18.348;2022-12-26T08:54:19;15.60;76.60
65582;DHT22;52231;40.090;18.348;2022-12-26T08:56:47;15.70;76.30
65582;DHT22;52231;40.090;18.348;2022-12-26T08:59:15;15.80;76.00
65582;DHT22;52231;40.090;18.348;2022-12-26T09:01:43;16.00;75.60
65582;DHT22;52231;40.090;18.348;2022-12-26T09:04:15;16.20;75.00
65582;DHT22;52231;40.090;18.348;2022-12-26T09:06:44;16.30;74.40
65582;DHT22;52231;40.090;18.348;2022-12-26T09:09:13;16.50;74.70
65582;DHT22;52231;40.090;18.348;2022-12-26T09:11:43;16.60;72.90
65582;DHT22;52231;40.090;18.348;2022-12-26T09:14:11;16.80;72.10
65582;DHT22;52231;40.090;18.348;2022-12-26T09:16:42;16.90;69.30
65582;DHT22;52231;40.090;18.348;2022-12-26T09:19:41;17.00;68.90
65582;DHT22;52231;40.090;18.348;2022-12-26T09:22:10;17.20;68.30
65582;DHT22;52231;40.090;18.348;2022-12-26T09:25:25;17.20;67.90
65582;DHT22;52231;40.090;18.348;2022-12-26T09:28:09;17.30;67.60
65582;DHT22;52231;40.090;18.348;2022-12-26T09:30:42;17.50;67.50
65582;DHT22;52231;40.090;18.348;2022-12-26T09:33:16;17.60;67.40
65582;DHT22;52231;40.090;18.348;2022-12-26T09:35:44;17.80;67.30
65582;DHT22;52231;40.090;18.348;2022-12-26T09:38:13;17.90;66.10
65582;DHT22;52231;40.090;18.348;2022-12-26T09:47:34;18.20;65.40
65582;DHT22;52231;40.090;18.348;2022-12-26T09:52:56;18.30;64.20
65582;DHT22;52231;40.090;18.348;2022-12-26T09:55:54;18.30;62.90
65582;DHT22;52231;40.090;18.348;2022-12-26T09:58:41;18.40;62.30
65582;DHT22;52231;40.090;18.348;2022-12-26T10:03:51;18.50;63.40
65582;DHT22;52231;40.090;18.348;2022-12-26T10:14:58;18.80;62.10
65582;DHT22;52231;40.090;18.348;2022-12-26T10:23:10;18.90;61.10
65582;DHT22;52231;40.090;18.348;2022-12-26T10:30:51;18.90;60.80
65582;DHT22;52231;40.090;18.348;2022-12-26T10:33:34;19.00;61.10
65582;DHT22;52231;40.090;18.348;2022-12-26T10:36:04;19.10;60.80
65582;DHT22;52231;40.090;18.348;2022-12-26T10:38:39;19.20;60.30
65582;DHT22;52231;40.090;18.348;2022-12-26T10:41:35;19.20;60.40
65582;DHT22;52231;40.090;18.348;2022-12-26T10:44:07;19.20;60.60
65582;DHT22;52231;40.090;18.348;2022-12-26T10:49:11;19.10;60.60
65582;DHT22;52231;40.090;18.348;2022-12-26T10:51:40;19.30;60.60
65582;DHT22;52231;40.090;18.348;2022-12-26T10:54:12;19.20;60.30
65582;DHT22;52231;40.090;18.348;2022-12-26T10:56:41;19.40;60.70
65582;DHT22;52231;40.090;18.348;2022-12-26T10:59:15;19.40;60.10
65582;DHT22;52231;40.090;18.348;2022-12-26T11:01:44;19.50;59.90
65582;DHT22;52231;40.090;18.348;2022-12-26T11:06:58;19.70;58.70
65582;DHT22;52231;40.090;18.348;2022-12-26T11:12:01;19.80;58.60
65582;DHT22;52231;40.090;18.348;2022-12-26T11:17:07;19.60;59.00
65582;DHT22;52231;40.090;18.348;2022-12-26T11:22:40;19.70;59.40
65582;DHT22;52231;40.090;18.348;2022-12-26T11:25:24;19.80;59.10
65582;DHT22;52231;40.090;18.348;2022-12-26T11:27:57;19.90;59.20
65582;DHT22;52231;40.090;18.348;2022-12-26T11:30:38;19.90;59.00
65582;DHT22;52231;40.090;18.348;2022-12-26T11:36:27;19.80;59.00
65582;DHT22;52231;40.090;18.348;2022-12-26T11:39:21;19.90;59.60
65582;DHT22;52231;40.090;18.348;2022-12-26T11:41:54;19.90;59.80
65582;DHT22;52231;40.090;18.348;2022-12-26T11:44:34;20.00;60.70
65582;DHT22;52231;40.090;18.348;2022-12-26T11:47:12;20.00;60.40
65582;DHT22;52231;40.090;18.348;2022-12-26T11:52:36;20.10;59.70
65582;DHT22;52231;40.090;18.348;2022-12-26T11:58:20;20.30;59.20
65582;DHT22;52231;40.090;18.348;2022-12-26T12:26:55;19.90;62.60
65582;DHT22;52231;40.090;18.348;2022-12-26T12:29:59;20.00;62.00
65582;DHT22;52231;40.090;18.348;2022-12-26T12:47:22;19.00;66.00
65582;DHT22;52231;40.090;18.348;2022-12-26T12:50:08;18.90;66.20
65582;DHT22;52231;40.090;18.348;2022-12-26T13:01:00;18.20;68.10
65582;DHT22;52231;40.090;18.348;2022-12-26T13:06:26;18.10;69.00
65582;DHT22;52231;40.090;18.348;2022-12-26T13:09:06;18.00;69.90
65582;DHT22;52231;40.090;18.348;2022-12-26T13:11:44;18.00;70.40
65582;DHT22;52231;40.090;18.348;2022-12-26T13:14:43;17.90;71.30
65582;DHT22;52231;40.090;18.348;2022-12-26T13:20:39;17.90;72.00
65582;DHT22;52231;40.090;18.348;2022-12-26T13:26:33;17.80;72.30
65582;DHT22;52231;40.090;18.348;2022-12-26T13:34:51;17.70;72.90
65582;DHT22;52231;40.090;18.348;2022-12-26T13:44:45;17.40;74.40
65582;DHT22;52231;40.090;18.348;2022-12-26T13:47:38;17.20;75.50
65582;DHT22;52231;40.090;18.348;2022-12-26T14:01:57;16.50;79.80
65582;DHT22;52231;40.090;18.348;2022-12-26T14:05:05;16.30;80.30
65582;DHT22;52231;40.090;18.348;2022-12-26T14:07:58;16.20;81.00
65582;DHT22;52231;40.090;18.348;2022-12-26T14:17:05;16.00;81.80
65582;DHT22;52231;40.090;18.348;2022-12-26T14:19:52;16.00;82.00
65582;DHT22;52231;40.090;18.348;2022-12-26T14:31:05;15.90;82.40
65582;DHT22;52231;40.090;18.348;2022-12-26T14:33:38;15.80;82.40
65582;DHT22;52231;40.090;18.348;2022-12-26T14:44:58;15.80;82.10
65582;DHT22;52231;40.090;18.348;2022-12-26T14:47:48;15.70;82.10
65582;DHT22;52231;40.090;18.348;2022-12-26T14:53:27;15.50;82.30
65582;DHT22;52231;40.090;18.348;2022-12-26T14:58:51;15.30;82.60
65582;DHT22;52231;40.090;18.348;2022-12-26T15:15:46;15.10;83.30
65582;DHT22;52231;40.090;18.348;2022-12-26T15:32:59;14.80;84.10
65582;DHT22;52231;40.090;18.348;2022-12-26T15:35:49;14.70;84.30
65582;DHT22;52231;40.090;18.348;2022-12-26T15:46:20;14.20;85.10
65582;DHT22;52231;40.090;18.348;2022-12-26T15:49:05;14.00;85.30
65582;DHT22;52231;40.090;18.348;2022-12-26T15:51:48;13.90;85.50
65582;DHT22;52231;40.090;18.348;2022-12-26T15:54:52;13.90;85.80
65582;DHT22;52231;40.090;18.348;2022-12-26T15:57:35;13.80;86.00
65582;DHT22;52231;40.090;18.348;2022-12-26T16:00:30;13.80;86.20
65582;DHT22;52231;40.090;18.348;2022-12-26T16:08:41;13.50;86.60
65582;DHT22;52231;40.090;18.348;2022-12-26T16:11:20;13.40;86.60
65582;DHT22;52231;40.090;18.348;2022-12-26T16:13:52;13.30;86.70
65582;DHT22;52231;40.090;18.348;2022-12-26T16:16:30;13.30;86.90
65582;DHT22;52231;40.090;18.348;2022-12-26T16:21:47;13.20;87.20
65582;DHT22;52231;40.090;18.348;2022-12-26T16:24:43;13.10;87.20
65582;DHT22;52231;40.090;18.348;2022-12-26T16:27:18;13.00;87.30
65582;DHT22;52231;40.090;18.348;2022-12-26T16:30:00;12.90;87.30
65582;DHT22;52231;40.090;18.348;2022-12-26T16:32:37;12.90;87.40
65582;DHT22;52231;40.090;18.348;2022-12-26T16:35:24;12.80;87.30
65582;DHT22;52231;40.090;18.348;2022-12-26T16:37:55;12.70;87.30
65582;DHT22;52231;40.090;18.348;2022-12-26T16:40:34;12.60;87.40
65582;DHT22;52231;40.090;18.348;2022-12-26T16:45:48;12.50;87.50
65582;DHT22;52231;40.090;18.348;2022-12-26T16:48:22;12.50;87.70
65582;DHT22;52231;40.090;18.348;2022-12-26T16:50:54;12.40;87.70
65582;DHT22;52231;40.090;18.348;2022-12-26T16:58:45;12.30;88.00
65582;DHT22;52231;40.090;18.348;2022-12-26T17:01:15;12.30;88.00
65582;DHT22;52231;40.090;18.348;2022-12-26T17:06:31;12.30;88.10
65582;DHT22;52231;40.090;18.348;2022-12-26T17:09:11;12.20;88.20
65582;DHT22;52231;40.090;18.348;2022-12-26T17:14:47;12.10;88.40
65582;DHT22;52231;40.090;18.348;2022-12-26T17:19:52;12.10;88.50
65582;DHT22;52231;40.090;18.348;2022-12-26T17:22:34;12.10;88.60
65582;DHT22;52231;40.090;18.348;2022-12-26T17:30:42;12.00;88.90
65582;DHT22;52231;40.090;18.348;2022-12-26T17:33:26;12.00;89.00
65582;DHT22;52231;40.090;18.348;2022-12-26T17:36:05;11.90;89.00
65582;DHT22;52231;40.090;18.348;2022-12-26T17:39:10;11.90;89.00
65582;DHT22;52231;40.090;18.348;2022-12-26T17:41:48;11.80;89.10
65582;DHT22;52231;40.090;18.348;2022-12-26T17:47:23;11.80;89.10
65582;DHT22;52231;40.090;18.348;2022-12-26T17:49:54;11.80;89.20
65582;DHT22;52231;40.090;18.348;2022-12-26T17:52:41;11.70;89.20
65582;DHT22;52231;40.090;18.348;2022-12-26T17:55:17;11.70;89.20
65582;DHT22;52231;40.090;18.348;2022-12-26T17:57:48;11.60;89.10
65582;DHT22;52231;40.090;18.348;2022-12-26T18:00:19;11.50;89.00
65582;DHT22;52231;40.090;18.348;2022-12-26T18:02:48;11.40;88.90
65582;DHT22;52231;40.090;18.348;2022-12-26T18:05:17;11.30;88.90
65582;DHT22;52231;40.090;18.348;2022-12-26T18:07:47;11.30;88.70
65582;DHT22;52231;40.090;18.348;2022-12-26T18:10:19;11.20;88.70
65582;DHT22;52231;40.090;18.348;2022-12-26T18:12:49;11.10;88.70
65582;DHT22;52231;40.090;18.348;2022-12-26T18:15:18;11.10;88.80
65582;DHT22;52231;40.090;18.348;2022-12-26T18:17:49;11.00;88.80
65582;DHT22;52231;40.090;18.348;2022-12-26T18:20:26;11.00;88.90
65582;DHT22;52231;40.090;18.348;2022-12-26T18:22:56;11.00;89.00
65582;DHT22;52231;40.090;18.348;2022-12-26T18:25:27;10.90;88.90
65582;DHT22;52231;40.090;18.348;2022-12-26T18:27:56;10.90;88.80
65582;DHT22;52231;40.090;18.348;2022-12-26T18:30:25;10.80;88.80
65582;DHT22;52231;40.090;18.348;2022-12-26T18:32:54;10.80;88.90
65582;DHT22;52231;40.090;18.348;2022-12-26T18:35:23;10.80;88.90
65582;DHT22;52231;40.090;18.348;2022-12-26T18:37:52;10.70;88.80
65582;DHT22;52231;40.090;18.348;2022-12-26T18:40:38;10.60;88.80
65582;DHT22;52231;40.090;18.348;2022-12-26T18:43:07;10.60;88.80
65582;DHT22;52231;40.090;18.348;2022-12-26T18:45:36;10.60;88.90
65582;DHT22;52231;40.090;18.348;2022-12-26T18:48:09;10.60;89.00
65582;DHT22;52231;40.090;18.348;2022-12-26T18:50:39;10.60;89.10
65582;DHT22;52231;40.090;18.348;2022-12-26T18:53:07;10.60;89.20
65582;DHT22;52231;40.090;18.348;2022-12-26T18:55:35;10.60;89.20
65582;DHT22;52231;40.090;18.348;2022-12-26T18:58:04;10.60;89.00
65582;DHT22;52231;40.090;18.348;2022-12-26T19:00:33;10.40;89.00
65582;DHT22;52231;40.090;18.348;2022-12-26T19:03:03;10.40;89.00
65582;DHT22;52231;40.090;18.348;2022-12-26T19:05:33;10.40;88.90
65582;DHT22;52231;40.090;18.348;2022-12-26T19:08:02;10.30;88.90
65582;DHT22;52231;40.090;18.348;2022-12-26T19:10:31;10.30;89.00
65582;DHT22;52231;40.090;18.348;2022-12-26T19:13:01;10.30;89.20
65582;DHT22;52231;40.090;18.348;2022-12-26T19:15:33;10.30;89.30
65582;DHT22;52231;40.090;18.348;2022-12-26T19:18:03;10.30;89.10
65582;DHT22;52231;40.090;18.348;2022-12-26T19:20:32;10.20;88.90
65582;DHT22;52231;40.090;18.348;2022-12-26T19:23:02;10.10;88.70
65582;DHT22;52231;40.090;18.348;2022-12-26T19:25:30;10.00;88.60
65582;DHT22;52231;40.090;18.348;2022-12-26T19:27:59;9.90;88.40
65582;DHT22;52231;40.090;18.348;2022-12-26T19:30:28;9.80;88.40
65582;DHT22;52231;40.090;18.348;2022-12-26T19:32:59;9.80;88.50
65582;DHT22;52231;40.090;18.348;2022-12-26T19:35:36;9.70;88.50
65582;DHT22;52231;40.090;18.348;2022-12-26T19:38:05;9.70;88.50
65582;DHT22;52231;40.090;18.348;2022-12-26T19:40:33;9.70;88.60
65582;DHT22;52231;40.090;18.348;2022-12-26T19:43:01;9.70;88.70
65582;DHT22;52231;40.090;18.348;2022-12-26T19:45:30;9.70;88.70
65582;DHT22;52231;40.090;18.348;2022-12-26T19:47:59;9.70;88.80
65582;DHT22;52231;40.090;18.348;2022-12-26T19:50:27;9.70;89.00
65582;DHT22;52231;40.090;18.348;2022-12-26T19:52:55;9.70;89.20
65582;DHT22;52231;40.090;18.348;2022-12-26T19:55:23;9.70;89.30
65582;DHT22;52231;40.090;18.348;2022-12-26T19:57:52;9.70;89.40
65582;DHT22;52231;40.090;18.348;2022-12-26T20:00:20;9.70;89.50
65582;DHT22;52231;40.090;18.348;2022-12-26T20:02:49;9.70;89.60
65582;DHT22;52231;40.090;18.348;2022-12-26T20:05:17;9.70;89.70
65582;DHT22;52231;40.090;18.348;2022-12-26T20:07:46;9.70;89.70
65582;DHT22;52231;40.090;18.348;2022-12-26T20:10:14;9.70;89.70
65582;DHT22;52231;40.090;18.348;2022-12-26T20:12:42;9.70;89.70
65582;DHT22;52231;40.090;18.348;2022-12-26T20:15:11;9.60;89.60
65582;DHT22;52231;40.090;18.348;2022-12-26T20:17:39;9.60;89.50
65582;DHT22;52231;40.090;18.348;2022-12-26T20:20:08;9.50;89.30
65582;DHT22;52231;40.090;18.348;2022-12-26T20:22:36;9.30;89.00
65582;DHT22;52231;40.090;18.348;2022-12-26T20:25:04;9.30;88.90
65582;DHT22;52231;40.090;18.348;2022-12-26T20:27:39;9.30;89.10
65582;DHT22;52231;40.090;18.348;2022-12-26T20:30:07;9.30;89.10
65582;DHT22;52231;40.090;18.348;2022-12-26T20:32:36;9.20;89.00
65582;DHT22;52231;40.090;18.348;2022-12-26T20:35:04;9.10;89.00
65582;DHT22;52231;40.090;18.348;2022-12-26T20:37:33;9.10;88.90
65582;DHT22;52231;40.090;18.348;2022-12-26T20:40:01;9.00;88.80
65582;DHT22;52231;40.090;18.348;2022-12-26T20:42:29;9.00;88.70
65582;DHT22;52231;40.090;18.348;2022-12-26T20:44:57;9.10;88.70
65582;DHT22;52231;40.090;18.348;2022-12-26T20:47:26;9.10;88.70
65582;DHT22;52231;40.090;18.348;2022-12-26T20:49:54;9.10;88.60
65582;DHT22;52231;40.090;18.348;2022-12-26T20:52:23;9.10;88.60
65582;DHT22;52231;40.090;18.348;2022-12-26T20:54:51;9.10;88.70
65582;DHT22;52231;40.090;18.348;2022-12-26T20:57:19;9.20;88.90
65582;DHT22;52231;40.090;18.348;2022-12-26T20:59:48;9.20;88.90
65582;DHT22;52231;40.090;18.348;2022-12-26T21:02:16;9.30;88.80
65582;DHT22;52231;40.090;18.348;2022-12-26T21:04:44;9.30;88.70
65582;DHT22;52231;40.090;18.348;2022-12-26T21:07:16;9.30;88.60
65582;DHT22;52231;40.090;18.348;2022-12-26T21:09:46;9.40;88.40
65582;DHT22;52231;40.090;18.348;2022-12-26T21:12:15;9.40;88.50
65582;DHT22;52231;40.090;18.348;2022-12-26T21:14:43;9.40;88.70
65582;DHT22;52231;40.090;18.348;2022-12-26T21:17:11;9.50;88.60
65582;DHT22;52231;40.090;18.348;2022-12-26T21:19:44;9.50;88.60
65582;DHT22;52231;40.090;18.348;2022-12-26T21:22:13;9.60;88.70
65582;DHT22;52231;40.090;18.348;2022-12-26T21:24:42;9.60;88.70